sensor_id;sensor_type;location;lat;lon;timestamp;P1;durP1;ratioP1;P2;durP2;ratioP2
19782;SDS011;10051;40.294;-3.754;2023-08-21T00:01:18;9.07;;;1.98;;
19782;SDS011;10051;40.294;-3.754;2023-08-21T00:03:43;10.60;;;2.05;;
19782;SDS011;10051;40.294;-3.754;2023-08-21T00:06:10;6.05;;;2.53;;
19782;SDS011;10051;40.294;-3.754;2023-08-21T00:08:35;6.70;;;2.25;;
19782;SDS011;10051;40.294;-3.754;2023-08-21T00:11:01;8.18;;;1.80;;
19782;SDS011;10051;40.294;-3.754;2023-08-21T00:13:27;5.80;;;1.80;;
19782;SDS011;10051;40.294;-3.754;2023-08-21T00:15:53;6.60;;;1.67;;
19782;SDS011;10051;40.294;-3.754;2023-08-21T00:18:20;6.45;;;1.67;;
19782;SDS011;10051;40.294;-3.754;2023-08-21T00:20:47;8.48;;;1.67;;
19782;SDS011;10051;40.294;-3.754;2023-08-21T00:23:13;3.90;;;1.60;;
19782;SDS011;10051;40.294;-3.754;2023-08-21T00:25:38;6.18;;;1.70;;
19782;SDS011;10051;40.294;-3.754;2023-08-21T00:28:04;7.03;;;1.85;;
19782;SDS011;10051;40.294;-3.754;2023-08-21T00:30:30;4.32;;;1.60;;
19782;SDS011;10051;40.294;-3.754;2023-08-21T00:32:56;7.80;;;1.30;;
19782;SDS011;10051;40.294;-3.754;2023-08-21T00:35:21;7.25;;;1.65;;
19782;SDS011;10051;40.294;-3.754;2023-08-21T00:37:53;10.25;;;1.70;;
19782;SDS011;10051;40.294;-3.754;2023-08-21T00:40:19;9.30;;;1.67;;
19782;SDS011;10051;40.294;-3.754;2023-08-21T00:42:45;5.47;;;1.40;;
19782;SDS011;10051;40.294;-3.754;2023-08-21T00:45:14;5.20;;;1.73;;
19782;SDS011;10051;40.294;-3.754;2023-08-21T00:47:41;10.00;;;1.90;;
19782;SDS011;10051;40.294;-3.754;2023-08-21T00:50:08;7.45;;;1.77;;
19782;SDS011;10051;40.294;-3.754;2023-08-21T00:52:38;6.20;;;1.50;;
19782;SDS011;10051;40.294;-3.754;2023-08-21T00:55:09;7.28;;;1.52;;
19782;SDS011;10051;40.294;-3.754;2023-08-21T00:57:39;8.52;;;1.60;;
19782;SDS011;10051;40.294;-3.754;2023-08-21T01:00:09;10.38;;;1.75;;
19782;SDS011;10051;40.294;-3.754;2023-08-21T01:02:46;5.53;;;1.42;;
19782;SDS011;10051;40.294;-3.754;2023-08-21T01:05:22;9.82;;;1.63;;
19782;SDS011;10051;40.294;-3.754;2023-08-21T01:08:05;5.13;;;1.63;;
19782;SDS011;10051;40.294;-3.754;2023-08-21T01:14:25;7.05;;;1.80;;
19782;SDS011;10051;40.294;-3.754;2023-08-21T01:16:53;8.80;;;1.88;;
19782;SDS011;10051;40.294;-3.754;2023-08-21T01:19:24;5.40;;;1.60;;
19782;SDS011;10051;40.294;-3.754;2023-08-21T01:21:57;5.97;;;1.80;;
19782;SDS011;10051;40.294;-3.754;2023-08-21T01:24:27;6.80;;;1.80;;
19782;SDS011;10051;40.294;-3.754;2023-08-21T01:26:53;4.90;;;1.40;;
19782;SDS011;10051;40.294;-3.754;2023-08-21T01:29:19;6.85;;;2.00;;
19782;SDS011;10051;40.294;-3.754;2023-08-21T01:31:47;8.73;;;1.77;;
19782;SDS011;10051;40.294;-3.754;2023-08-21T01:34:21;7.85;;;2.00;;
19782;SDS011;10051;40.294;-3.754;2023-08-21T01:36:48;4.93;;;1.70;;
19782;SDS011;10051;40.294;-3.754;2023-08-21T01:39:14;10.23;;;1.92;;
19782;SDS011;10051;40.294;-3.754;2023-08-21T01:41:41;6.93;;;1.95;;
19782;SDS011;10051;40.294;-3.754;2023-08-21T01:44:07;5.30;;;1.95;;
19782;SDS011;10051;40.294;-3.754;2023-08-21T01:46:32;6.82;;;1.95;;
19782;SDS011;10051;40.294;-3.754;2023-08-21T01:48:58;7.72;;;2.17;;
19782;SDS011;10051;40.294;-3.754;2023-08-21T01:51:24;5.95;;;2.20;;
19782;SDS011;10051;40.294;-3.754;2023-08-21T01:53:50;11.48;;;2.17;;
19782;SDS011;10051;40.294;-3.754;2023-08-21T01:56:15;5.38;;;2.03;;
19782;SDS011;10051;40.294;-3.754;2023-08-21T01:58:41;5.82;;;2.13;;
19782;SDS011;10051;40.294;-3.754;2023-08-21T02:01:07;8.48;;;2.17;;
19782;SDS011;10051;40.294;-3.754;2023-08-21T02:03:32;6.45;;;2.15;;
19782;SDS011;10051;40.294;-3.754;2023-08-21T02:05:58;5.13;;;2.05;;
19782;SDS011;10051;40.294;-3.754;2023-08-21T02:08:27;7.90;;;2.40;;
19782;SDS011;10051;40.294;-3.754;2023-08-21T02:10:57;14.38;;;2.30;;
19782;SDS011;10051;40.294;-3.754;2023-08-21T02:13:24;7.22;;;2.10;;
19782;SDS011;10051;40.294;-3.754;2023-08-21T02:15:50;6.18;;;2.15;;
19782;SDS011;10051;40.294;-3.754;2023-08-21T02:18:16;5.10;;;2.35;;
19782;SDS011;10051;40.294;-3.754;2023-08-21T02:20:42;9.98;;;2.28;;
19782;SDS011;10051;40.294;-3.754;2023-08-21T02:23:08;7.22;;;2.50;;
19782;SDS011;10051;40.294;-3.754;2023-08-21T02:25:35;14.68;;;2.00;;
19782;SDS011;10051;40.294;-3.754;2023-08-21T02:28:01;9.80;;;2.20;;
19782;SDS011;10051;40.294;-3.754;2023-08-21T02:30:29;6.38;;;2.30;;
19782;SDS011;10051;40.294;-3.754;2023-08-21T02:32:55;9.02;;;2.40;;
19782;SDS011;10051;40.294;-3.754;2023-08-21T02:35:24;6.88;;;2.45;;
19782;SDS011;10051;40.294;-3.754;2023-08-21T02:37:50;6.25;;;2.30;;
19782;SDS011;10051;40.294;-3.754;2023-08-21T02:40:22;7.38;;;2.45;;
19782;SDS011;10051;40.294;-3.754;2023-08-21T02:42:54;5.78;;;2.17;;
19782;SDS011;10051;40.294;-3.754;2023-08-21T02:45:21;8.20;;;2.20;;
19782;SDS011;10051;40.294;-3.754;2023-08-21T02:47:47;11.63;;;2.30;;
19782;SDS011;10051;40.294;-3.754;2023-08-21T02:50:16;10.60;;;2.50;;
19782;SDS011;10051;40.294;-3.754;2023-08-21T02:52:42;5.63;;;2.22;;
19782;SDS011;10051;40.294;-3.754;2023-08-21T02:55:08;6.05;;;2.22;;
19782;SDS011;10051;40.294;-3.754;2023-08-21T02:57:37;3.40;;;2.00;;
19782;SDS011;10051;40.294;-3.754;2023-08-21T03:00:03;7.53;;;2.20;;
19782;SDS011;10051;40.294;-3.754;2023-08-21T03:02:33;9.00;;;2.30;;
19782;SDS011;10051;40.294;-3.754;2023-08-21T03:04:59;7.72;;;2.50;;
19782;SDS011;10051;40.294;-3.754;2023-08-21T03:07:26;7.35;;;2.55;;
19782;SDS011;10051;40.294;-3.754;2023-08-21T03:09:52;9.40;;;2.50;;
19782;SDS011;10051;40.294;-3.754;2023-08-21T03:12:18;6.72;;;2.38;;
19782;SDS011;10051;40.294;-3.754;2023-08-21T03:14:43;5.93;;;2.35;;
19782;SDS011;10051;40.294;-3.754;2023-08-21T03:17:09;6.53;;;2.20;;
19782;SDS011;10051;40.294;-3.754;2023-08-21T03:19:34;10.82;;;2.55;;
19782;SDS011;10051;40.294;-3.754;2023-08-21T03:22:00;6.07;;;2.15;;
19782;SDS011;10051;40.294;-3.754;2023-08-21T03:24:26;5.88;;;2.15;;
19782;SDS011;10051;40.294;-3.754;2023-08-21T03:26:51;7.40;;;2.50;;
19782;SDS011;10051;40.294;-3.754;2023-08-21T03:29:17;6.68;;;2.30;;
19782;SDS011;10051;40.294;-3.754;2023-08-21T03:31:43;10.73;;;2.50;;
19782;SDS011;10051;40.294;-3.754;2023-08-21T03:34:11;7.68;;;2.20;;
19782;SDS011;10051;40.294;-3.754;2023-08-21T03:36:37;10.70;;;2.30;;
19782;SDS011;10051;40.294;-3.754;2023-08-21T03:39:03;13.70;;;2.40;;
19782;SDS011;10051;40.294;-3.754;2023-08-21T03:41:31;13.57;;;2.53;;
19782;SDS011;10051;40.294;-3.754;2023-08-21T03:43:56;11.68;;;2.55;;
19782;SDS011;10051;40.294;-3.754;2023-08-21T03:46:25;9.15;;;2.58;;
19782;SDS011;10051;40.294;-3.754;2023-08-21T03:48:51;7.47;;;2.30;;
19782;SDS011;10051;40.294;-3.754;2023-08-21T03:51:17;5.75;;;2.42;;
19782;SDS011;10051;40.294;-3.754;2023-08-21T03:53:42;7.50;;;2.40;;
19782;SDS011;10051;40.294;-3.754;2023-08-21T03:56:08;5.50;;;2.45;;
19782;SDS011;10051;40.294;-3.754;2023-08-21T03:58:34;7.88;;;2.58;;
19782;SDS011;10051;40.294;-3.754;2023-08-21T04:01:00;8.50;;;2.60;;
19782;SDS011;10051;40.294;-3.754;2023-08-21T04:03:25;9.07;;;2.50;;
19782;SDS011;10051;40.294;-3.754;2023-08-21T04:05:55;9.40;;;2.50;;
19782;SDS011;10051;40.294;-3.754;2023-08-21T04:08:26;5.22;;;2.63;;
19782;SDS011;10051;40.294;-3.754;2023-08-21T04:10:56;10.60;;;2.60;;
19782;SDS011;10051;40.294;-3.754;2023-08-21T04:13:25;11.50;;;2.42;;
19782;SDS011;10051;40.294;-3.754;2023-08-21T04:15:55;5.68;;;2.47;;
19782;SDS011;10051;40.294;-3.754;2023-08-21T04:18:22;6.97;;;2.50;;
19782;SDS011;10051;40.294;-3.754;2023-08-21T04:20:51;6.32;;;2.70;;
19782;SDS011;10051;40.294;-3.754;2023-08-21T04:23:33;8.50;;;2.42;;
19782;SDS011;10051;40.294;-3.754;2023-08-21T04:26:04;6.10;;;2.40;;
19782;SDS011;10051;40.294;-3.754;2023-08-21T04:28:33;8.35;;;2.33;;
19782;SDS011;10051;40.294;-3.754;2023-08-21T04:30:59;7.32;;;2.30;;
19782;SDS011;10051;40.294;-3.754;2023-08-21T04:33:28;5.50;;;2.28;;
19782;SDS011;10051;40.294;-3.754;2023-08-21T04:35:59;7.25;;;2.50;;
19782;SDS011;10051;40.294;-3.754;2023-08-21T04:38:25;7.20;;;2.35;;
19782;SDS011;10051;40.294;-3.754;2023-08-21T04:40:51;6.00;;;2.30;;
19782;SDS011;10051;40.294;-3.754;2023-08-21T04:43:17;4.40;;;2.42;;
19782;SDS011;10051;40.294;-3.754;2023-08-21T04:45:49;5.20;;;2.40;;
19782;SDS011;10051;40.294;-3.754;2023-08-21T04:48:18;3.88;;;2.20;;
19782;SDS011;10051;40.294;-3.754;2023-08-21T04:50:45;6.72;;;2.60;;
19782;SDS011;10051;40.294;-3.754;2023-08-21T04:53:11;7.45;;;2.60;;
19782;SDS011;10051;40.294;-3.754;2023-08-21T04:55:37;10.23;;;2.60;;
19782;SDS011;10051;40.294;-3.754;2023-08-21T04:58:05;9.38;;;2.60;;
19782;SDS011;10051;40.294;-3.754;2023-08-21T05:00:34;7.57;;;2.40;;
19782;SDS011;10051;40.294;-3.754;2023-08-21T05:03:00;6.07;;;1.98;;
19782;SDS011;10051;40.294;-3.754;2023-08-21T05:05:26;6.10;;;2.35;;
19782;SDS011;10051;40.294;-3.754;2023-08-21T05:07:52;6.38;;;2.20;;
19782;SDS011;10051;40.294;-3.754;2023-08-21T05:10:19;10.93;;;2.40;;
19782;SDS011;10051;40.294;-3.754;2023-08-21T05:12:45;6.28;;;2.25;;
19782;SDS011;10051;40.294;-3.754;2023-08-21T05:15:12;6.97;;;2.45;;
19782;SDS011;10051;40.294;-3.754;2023-08-21T05:17:37;9.50;;;2.45;;
19782;SDS011;10051;40.294;-3.754;2023-08-21T05:20:03;8.35;;;2.47;;
19782;SDS011;10051;40.294;-3.754;2023-08-21T05:22:29;9.05;;;2.35;;
19782;SDS011;10051;40.294;-3.754;2023-08-21T05:24:55;8.15;;;2.33;;
19782;SDS011;10051;40.294;-3.754;2023-08-21T05:27:21;6.95;;;2.35;;
19782;SDS011;10051;40.294;-3.754;2023-08-21T05:29:47;7.13;;;2.60;;
19782;SDS011;10051;40.294;-3.754;2023-08-21T05:32:14;8.68;;;2.63;;
19782;SDS011;10051;40.294;-3.754;2023-08-21T05:34:40;11.32;;;2.47;;
19782;SDS011;10051;40.294;-3.754;2023-08-21T05:37:08;7.13;;;2.40;;
19782;SDS011;10051;40.294;-3.754;2023-08-21T05:39:34;8.95;;;2.33;;
19782;SDS011;10051;40.294;-3.754;2023-08-21T05:42:00;10.38;;;2.63;;
19782;SDS011;10051;40.294;-3.754;2023-08-21T05:44:29;7.75;;;2.53;;
19782;SDS011;10051;40.294;-3.754;2023-08-21T05:46:55;6.75;;;2.35;;
19782;SDS011;10051;40.294;-3.754;2023-08-21T05:49:25;8.32;;;2.33;;
19782;SDS011;10051;40.294;-3.754;2023-08-21T05:51:55;9.45;;;2.35;;
19782;SDS011;10051;40.294;-3.754;2023-08-21T05:54:24;10.93;;;2.50;;
19782;SDS011;10051;40.294;-3.754;2023-08-21T05:56:54;6.30;;;2.60;;
19782;SDS011;10051;40.294;-3.754;2023-08-21T05:59:27;8.07;;;2.45;;
19782;SDS011;10051;40.294;-3.754;2023-08-21T06:01:56;8.13;;;2.47;;
19782;SDS011;10051;40.294;-3.754;2023-08-21T06:04:23;5.68;;;2.20;;
19782;SDS011;10051;40.294;-3.754;2023-08-21T06:06:53;9.38;;;2.40;;
19782;SDS011;10051;40.294;-3.754;2023-08-21T06:09:22;13.77;;;2.50;;
19782;SDS011;10051;40.294;-3.754;2023-08-21T06:11:59;7.35;;;2.65;;
19782;SDS011;10051;40.294;-3.754;2023-08-21T06:14:28;11.13;;;2.40;;
19782;SDS011;10051;40.294;-3.754;2023-08-21T06:16:56;9.60;;;2.60;;
19782;SDS011;10051;40.294;-3.754;2023-08-21T06:19:22;8.45;;;2.65;;
19782;SDS011;10051;40.294;-3.754;2023-08-21T06:21:48;11.77;;;2.53;;
19782;SDS011;10051;40.294;-3.754;2023-08-21T06:24:14;9.82;;;2.67;;
19782;SDS011;10051;40.294;-3.754;2023-08-21T06:26:40;11.27;;;2.42;;
19782;SDS011;10051;40.294;-3.754;2023-08-21T06:29:05;8.70;;;2.50;;
19782;SDS011;10051;40.294;-3.754;2023-08-21T06:31:31;13.48;;;2.60;;
19782;SDS011;10051;40.294;-3.754;2023-08-21T06:33:57;9.68;;;2.30;;
19782;SDS011;10051;40.294;-3.754;2023-08-21T06:36:25;15.38;;;2.60;;
19782;SDS011;10051;40.294;-3.754;2023-08-21T06:38:51;12.05;;;2.47;;
19782;SDS011;10051;40.294;-3.754;2023-08-21T06:41:17;8.32;;;2.58;;
19782;SDS011;10051;40.294;-3.754;2023-08-21T06:43:42;13.13;;;3.03;;
19782;SDS011;10051;40.294;-3.754;2023-08-21T06:46:08;11.05;;;2.85;;
19782;SDS011;10051;40.294;-3.754;2023-08-21T06:48:34;14.77;;;3.28;;
19782;SDS011;10051;40.294;-3.754;2023-08-21T06:51:03;12.45;;;2.88;;
19782;SDS011;10051;40.294;-3.754;2023-08-21T06:53:28;13.90;;;2.92;;
19782;SDS011;10051;40.294;-3.754;2023-08-21T06:55:54;14.70;;;3.00;;
19782;SDS011;10051;40.294;-3.754;2023-08-21T06:58:20;16.05;;;2.70;;
19782;SDS011;10051;40.294;-3.754;2023-08-21T07:00:46;15.15;;;3.33;;
19782;SDS011;10051;40.294;-3.754;2023-08-21T07:03:12;18.52;;;3.00;;
19782;SDS011;10051;40.294;-3.754;2023-08-21T07:05:37;10.35;;;2.55;;
19782;SDS011;10051;40.294;-3.754;2023-08-21T07:08:03;11.50;;;2.83;;
19782;SDS011;10051;40.294;-3.754;2023-08-21T07:10:29;18.05;;;3.08;;
19782;SDS011;10051;40.294;-3.754;2023-08-21T07:12:55;10.32;;;2.55;;
19782;SDS011;10051;40.294;-3.754;2023-08-21T07:15:22;10.90;;;2.63;;
19782;SDS011;10051;40.294;-3.754;2023-08-21T07:17:47;13.85;;;2.95;;
19782;SDS011;10051;40.294;-3.754;2023-08-21T07:20:16;12.20;;;2.78;;
19782;SDS011;10051;40.294;-3.754;2023-08-21T07:22:42;10.20;;;2.80;;
19782;SDS011;10051;40.294;-3.754;2023-08-21T07:25:08;11.40;;;2.60;;
19782;SDS011;10051;40.294;-3.754;2023-08-21T07:27:34;12.35;;;2.80;;
19782;SDS011;10051;40.294;-3.754;2023-08-21T07:30:03;12.82;;;2.45;;
19782;SDS011;10051;40.294;-3.754;2023-08-21T07:32:33;9.80;;;2.50;;
19782;SDS011;10051;40.294;-3.754;2023-08-21T07:34:58;10.68;;;2.47;;
19782;SDS011;10051;40.294;-3.754;2023-08-21T07:37:31;16.25;;;2.85;;
19782;SDS011;10051;40.294;-3.754;2023-08-21T07:40:04;20.77;;;2.72;;
19782;SDS011;10051;40.294;-3.754;2023-08-21T07:42:39;13.20;;;2.53;;
19782;SDS011;10051;40.294;-3.754;2023-08-21T07:45:05;10.88;;;2.72;;
19782;SDS011;10051;40.294;-3.754;2023-08-21T07:47:32;13.02;;;2.70;;
19782;SDS011;10051;40.294;-3.754;2023-08-21T07:50:04;16.38;;;2.70;;
19782;SDS011;10051;40.294;-3.754;2023-08-21T07:52:31;11.45;;;2.83;;
19782;SDS011;10051;40.294;-3.754;2023-08-21T07:54:57;14.30;;;2.78;;
19782;SDS011;10051;40.294;-3.754;2023-08-21T07:57:24;10.40;;;2.63;;
19782;SDS011;10051;40.294;-3.754;2023-08-21T07:59:50;9.73;;;2.63;;
19782;SDS011;10051;40.294;-3.754;2023-08-21T08:02:16;11.50;;;2.60;;
19782;SDS011;10051;40.294;-3.754;2023-08-21T08:04:42;10.73;;;2.70;;
19782;SDS011;10051;40.294;-3.754;2023-08-21T08:07:08;5.18;;;2.08;;
19782;SDS011;10051;40.294;-3.754;2023-08-21T08:09:34;12.15;;;2.70;;
19782;SDS011;10051;40.294;-3.754;2023-08-21T08:12:02;7.38;;;2.22;;
19782;SDS011;10051;40.294;-3.754;2023-08-21T08:14:28;8.88;;;2.50;;
19782;SDS011;10051;40.294;-3.754;2023-08-21T08:16:54;5.68;;;2.30;;
19782;SDS011;10051;40.294;-3.754;2023-08-21T08:19:20;10.15;;;2.83;;
19782;SDS011;10051;40.294;-3.754;2023-08-21T08:21:45;10.77;;;2.60;;
19782;SDS011;10051;40.294;-3.754;2023-08-21T08:24:12;7.05;;;2.50;;
19782;SDS011;10051;40.294;-3.754;2023-08-21T08:26:37;8.38;;;2.55;;
19782;SDS011;10051;40.294;-3.754;2023-08-21T08:29:03;7.20;;;2.72;;
19782;SDS011;10051;40.294;-3.754;2023-08-21T08:31:30;8.35;;;2.60;;
19782;SDS011;10051;40.294;-3.754;2023-08-21T08:33:56;6.88;;;2.50;;
19782;SDS011;10051;40.294;-3.754;2023-08-21T08:36:22;10.13;;;2.95;;
19782;SDS011;10051;40.294;-3.754;2023-08-21T08:38:48;11.85;;;3.10;;
19782;SDS011;10051;40.294;-3.754;2023-08-21T08:41:16;9.32;;;3.20;;
19782;SDS011;10051;40.294;-3.754;2023-08-21T08:44:03;8.13;;;2.53;;
19782;SDS011;10051;40.294;-3.754;2023-08-21T08:46:29;9.50;;;2.63;;
19782;SDS011;10051;40.294;-3.754;2023-08-21T08:48:56;8.88;;;2.60;;
19782;SDS011;10051;40.294;-3.754;2023-08-21T08:51:22;10.43;;;2.42;;
19782;SDS011;10051;40.294;-3.754;2023-08-21T08:53:50;8.95;;;2.42;;
19782;SDS011;10051;40.294;-3.754;2023-08-21T08:56:16;8.48;;;2.45;;
19782;SDS011;10051;40.294;-3.754;2023-08-21T08:58:42;18.80;;;2.97;;
19782;SDS011;10051;40.294;-3.754;2023-08-21T09:01:08;10.73;;;2.60;;
19782;SDS011;10051;40.294;-3.754;2023-08-21T09:03:38;10.90;;;2.60;;
19782;SDS011;10051;40.294;-3.754;2023-08-21T09:06:07;10.65;;;2.75;;
19782;SDS011;10051;40.294;-3.754;2023-08-21T09:08:33;8.82;;;2.45;;
19782;SDS011;10051;40.294;-3.754;2023-08-21T09:11:02;11.80;;;2.80;;
19782;SDS011;10051;40.294;-3.754;2023-08-21T09:13:31;9.80;;;2.20;;
19782;SDS011;10051;40.294;-3.754;2023-08-21T09:16:01;11.18;;;2.63;;
19782;SDS011;10051;40.294;-3.754;2023-08-21T09:18:32;14.90;;;2.75;;
19782;SDS011;10051;40.294;-3.754;2023-08-21T09:21:03;6.43;;;2.00;;
19782;SDS011;10051;40.294;-3.754;2023-08-21T09:23:31;10.52;;;2.20;;
19782;SDS011;10051;40.294;-3.754;2023-08-21T09:25:57;5.50;;;2.22;;
19782;SDS011;10051;40.294;-3.754;2023-08-21T09:28:26;12.02;;;2.40;;
19782;SDS011;10051;40.294;-3.754;2023-08-21T09:30:52;10.48;;;2.50;;
19782;SDS011;10051;40.294;-3.754;2023-08-21T09:33:20;7.90;;;2.35;;
19782;SDS011;10051;40.294;-3.754;2023-08-21T09:35:54;9.63;;;2.70;;
19782;SDS011;10051;40.294;-3.754;2023-08-21T09:38:20;11.77;;;2.75;;
19782;SDS011;10051;40.294;-3.754;2023-08-21T09:40:51;9.00;;;2.47;;
19782;SDS011;10051;40.294;-3.754;2023-08-21T09:43:20;10.77;;;2.95;;
19782;SDS011;10051;40.294;-3.754;2023-08-21T09:45:47;11.02;;;2.67;;
19782;SDS011;10051;40.294;-3.754;2023-08-21T09:48:17;7.03;;;2.63;;
19782;SDS011;10051;40.294;-3.754;2023-08-21T09:50:46;12.48;;;2.60;;
19782;SDS011;10051;40.294;-3.754;2023-08-21T09:53:11;8.25;;;2.90;;
19782;SDS011;10051;40.294;-3.754;2023-08-21T09:55:39;6.68;;;2.40;;
19782;SDS011;10051;40.294;-3.754;2023-08-21T09:58:06;8.00;;;2.30;;
19782;SDS011;10051;40.294;-3.754;2023-08-21T10:00:32;8.95;;;2.50;;
19782;SDS011;10051;40.294;-3.754;2023-08-21T10:03:01;7.13;;;2.33;;
19782;SDS011;10051;40.294;-3.754;2023-08-21T10:05:31;12.73;;;2.50;;
19782;SDS011;10051;40.294;-3.754;2023-08-21T10:07:59;5.38;;;2.20;;
19782;SDS011;10051;40.294;-3.754;2023-08-21T10:10:28;10.10;;;2.53;;
19782;SDS011;10051;40.294;-3.754;2023-08-21T10:12:59;12.45;;;2.67;;
19782;SDS011;10051;40.294;-3.754;2023-08-21T10:15:27;10.52;;;2.72;;
19782;SDS011;10051;40.294;-3.754;2023-08-21T10:17:54;11.38;;;2.75;;
19782;SDS011;10051;40.294;-3.754;2023-08-21T10:20:24;15.15;;;3.15;;
19782;SDS011;10051;40.294;-3.754;2023-08-21T10:22:55;9.63;;;2.45;;
19782;SDS011;10051;40.294;-3.754;2023-08-21T10:25:27;8.38;;;2.42;;
19782;SDS011;10051;40.294;-3.754;2023-08-21T10:27:56;6.43;;;2.35;;
19782;SDS011;10051;40.294;-3.754;2023-08-21T10:30:27;11.80;;;2.50;;
19782;SDS011;10051;40.294;-3.754;2023-08-21T10:32:54;11.70;;;2.38;;
19782;SDS011;10051;40.294;-3.754;2023-08-21T10:35:23;12.00;;;2.40;;
19782;SDS011;10051;40.294;-3.754;2023-08-21T10:38:06;6.80;;;2.40;;
19782;SDS011;10051;40.294;-3.754;2023-08-21T10:43:40;10.02;;;2.50;;
19782;SDS011;10051;40.294;-3.754;2023-08-21T10:46:16;7.13;;;2.30;;
19782;SDS011;10051;40.294;-3.754;2023-08-21T10:48:42;10.73;;;2.42;;
19782;SDS011;10051;40.294;-3.754;2023-08-21T10:51:09;7.88;;;2.58;;
19782;SDS011;10051;40.294;-3.754;2023-08-21T10:53:37;10.52;;;2.50;;
19782;SDS011;10051;40.294;-3.754;2023-08-21T10:56:05;7.35;;;2.30;;
19782;SDS011;10051;40.294;-3.754;2023-08-21T10:58:49;10.93;;;2.60;;
19782;SDS011;10051;40.294;-3.754;2023-08-21T11:01:16;7.20;;;2.40;;
19782;SDS011;10051;40.294;-3.754;2023-08-21T11:03:46;8.15;;;2.40;;
19782;SDS011;10051;40.294;-3.754;2023-08-21T11:06:20;7.95;;;2.40;;
19782;SDS011;10051;40.294;-3.754;2023-08-21T11:08:46;8.05;;;2.35;;
19782;SDS011;10051;40.294;-3.754;2023-08-21T11:11:12;6.07;;;2.30;;
19782;SDS011;10051;40.294;-3.754;2023-08-21T11:13:41;9.45;;;2.50;;
19782;SDS011;10051;40.294;-3.754;2023-08-21T11:16:18;13.23;;;2.20;;
19782;SDS011;10051;40.294;-3.754;2023-08-21T11:18:44;7.35;;;2.40;;
19782;SDS011;10051;40.294;-3.754;2023-08-21T11:21:13;8.43;;;2.28;;
19782;SDS011;10051;40.294;-3.754;2023-08-21T11:23:42;5.70;;;2.00;;
19782;SDS011;10051;40.294;-3.754;2023-08-21T11:26:11;8.85;;;2.22;;
19782;SDS011;10051;40.294;-3.754;2023-08-21T11:28:38;8.60;;;2.55;;
19782;SDS011;10051;40.294;-3.754;2023-08-21T11:31:04;5.50;;;2.20;;
19782;SDS011;10051;40.294;-3.754;2023-08-21T11:33:31;8.07;;;2.40;;
19782;SDS011;10051;40.294;-3.754;2023-08-21T11:35:57;8.15;;;2.50;;
19782;SDS011;10051;40.294;-3.754;2023-08-21T11:38:25;8.77;;;2.30;;
19782;SDS011;10051;40.294;-3.754;2023-08-21T11:43:18;5.80;;;2.38;;
19782;SDS011;10051;40.294;-3.754;2023-08-21T11:45:47;11.20;;;2.70;;
19782;SDS011;10051;40.294;-3.754;2023-08-21T11:48:13;5.53;;;2.30;;
19782;SDS011;10051;40.294;-3.754;2023-08-21T11:50:39;8.43;;;2.38;;
19782;SDS011;10051;40.294;-3.754;2023-08-21T11:53:05;5.07;;;2.10;;
19782;SDS011;10051;40.294;-3.754;2023-08-21T11:55:31;5.03;;;2.08;;
19782;SDS011;10051;40.294;-3.754;2023-08-21T11:57:57;7.15;;;2.20;;
19782;SDS011;10051;40.294;-3.754;2023-08-21T12:00:26;6.95;;;2.30;;
19782;SDS011;10051;40.294;-3.754;2023-08-21T12:02:55;7.18;;;2.50;;
19782;SDS011;10051;40.294;-3.754;2023-08-21T12:05:22;4.22;;;2.13;;
19782;SDS011;10051;40.294;-3.754;2023-08-21T12:07:48;8.25;;;2.20;;
19782;SDS011;10051;40.294;-3.754;2023-08-21T12:10:14;6.80;;;2.22;;
19782;SDS011;10051;40.294;-3.754;2023-08-21T12:12:39;4.03;;;2.10;;
19782;SDS011;10051;40.294;-3.754;2023-08-21T12:15:06;7.18;;;2.05;;
19782;SDS011;10051;40.294;-3.754;2023-08-21T12:17:31;8.05;;;2.30;;
19782;SDS011;10051;40.294;-3.754;2023-08-21T12:19:57;5.68;;;2.20;;
19782;SDS011;10051;40.294;-3.754;2023-08-21T12:22:23;8.95;;;2.10;;
19782;SDS011;10051;40.294;-3.754;2023-08-21T12:24:48;9.75;;;2.17;;
19782;SDS011;10051;40.294;-3.754;2023-08-21T12:27:14;6.47;;;1.92;;
19782;SDS011;10051;40.294;-3.754;2023-08-21T12:29:41;7.88;;;2.10;;
19782;SDS011;10051;40.294;-3.754;2023-08-21T12:32:06;9.57;;;2.50;;
19782;SDS011;10051;40.294;-3.754;2023-08-21T12:34:35;6.85;;;2.05;;
19782;SDS011;10051;40.294;-3.754;2023-08-21T12:37:01;8.00;;;2.00;;
19782;SDS011;10051;40.294;-3.754;2023-08-21T12:39:28;7.05;;;2.10;;
19782;SDS011;10051;40.294;-3.754;2023-08-21T12:41:54;9.05;;;2.10;;
19782;SDS011;10051;40.294;-3.754;2023-08-21T12:44:21;5.72;;;2.00;;
19782;SDS011;10051;40.294;-3.754;2023-08-21T12:46:47;8.55;;;2.25;;
19782;SDS011;10051;40.294;-3.754;2023-08-21T12:49:13;7.07;;;2.00;;
19782;SDS011;10051;40.294;-3.754;2023-08-21T12:51:42;8.75;;;2.13;;
19782;SDS011;10051;40.294;-3.754;2023-08-21T12:54:23;7.70;;;1.90;;
19782;SDS011;10051;40.294;-3.754;2023-08-21T12:56:51;10.63;;;2.13;;
19782;SDS011;10051;40.294;-3.754;2023-08-21T12:59:22;6.25;;;2.00;;
19782;SDS011;10051;40.294;-3.754;2023-08-21T13:02:04;6.78;;;1.60;;
19782;SDS011;10051;40.294;-3.754;2023-08-21T13:04:33;7.88;;;1.90;;
19782;SDS011;10051;40.294;-3.754;2023-08-21T13:06:59;7.75;;;2.00;;
19782;SDS011;10051;40.294;-3.754;2023-08-21T13:09:26;7.32;;;1.80;;
19782;SDS011;10051;40.294;-3.754;2023-08-21T13:11:56;3.85;;;1.75;;
19782;SDS011;10051;40.294;-3.754;2023-08-21T13:14:23;4.15;;;1.70;;
19782;SDS011;10051;40.294;-3.754;2023-08-21T13:16:49;7.93;;;1.85;;
19782;SDS011;10051;40.294;-3.754;2023-08-21T13:19:15;4.57;;;1.95;;
19782;SDS011;10051;40.294;-3.754;2023-08-21T13:21:41;4.03;;;1.90;;
19782;SDS011;10051;40.294;-3.754;2023-08-21T13:24:06;3.50;;;1.70;;
19782;SDS011;10051;40.294;-3.754;2023-08-21T13:26:33;6.15;;;2.10;;
19782;SDS011;10051;40.294;-3.754;2023-08-21T13:28:58;8.73;;;1.90;;
19782;SDS011;10051;40.294;-3.754;2023-08-21T13:31:25;4.60;;;1.80;;
19782;SDS011;10051;40.294;-3.754;2023-08-21T13:33:52;3.05;;;1.77;;
19782;SDS011;10051;40.294;-3.754;2023-08-21T13:36:19;7.03;;;2.00;;
19782;SDS011;10051;40.294;-3.754;2023-08-21T13:38:46;7.18;;;1.70;;
19782;SDS011;10051;40.294;-3.754;2023-08-21T13:41:12;7.05;;;1.70;;
19782;SDS011;10051;40.294;-3.754;2023-08-21T13:43:38;7.45;;;2.15;;
19782;SDS011;10051;40.294;-3.754;2023-08-21T13:46:04;3.13;;;1.75;;
19782;SDS011;10051;40.294;-3.754;2023-08-21T13:48:33;3.40;;;1.50;;
19782;SDS011;10051;40.294;-3.754;2023-08-21T13:50:58;4.43;;;1.60;;
19782;SDS011;10051;40.294;-3.754;2023-08-21T13:53:24;5.85;;;1.50;;
19782;SDS011;10051;40.294;-3.754;2023-08-21T13:55:50;4.75;;;1.45;;
19782;SDS011;10051;40.294;-3.754;2023-08-21T13:58:16;6.25;;;1.60;;
19782;SDS011;10051;40.294;-3.754;2023-08-21T14:00:42;6.75;;;1.50;;
19782;SDS011;10051;40.294;-3.754;2023-08-21T14:03:09;3.35;;;1.40;;
19782;SDS011;10051;40.294;-3.754;2023-08-21T14:05:35;4.82;;;1.60;;
19782;SDS011;10051;40.294;-3.754;2023-08-21T14:08:01;5.80;;;1.40;;
19782;SDS011;10051;40.294;-3.754;2023-08-21T14:10:27;5.38;;;1.45;;
19782;SDS011;10051;40.294;-3.754;2023-08-21T14:12:53;4.90;;;1.65;;
19782;SDS011;10051;40.294;-3.754;2023-08-21T14:15:18;4.82;;;1.60;;
19782;SDS011;10051;40.294;-3.754;2023-08-21T14:17:44;4.20;;;1.55;;
19782;SDS011;10051;40.294;-3.754;2023-08-21T14:20:14;4.88;;;1.50;;
19782;SDS011;10051;40.294;-3.754;2023-08-21T14:22:41;4.38;;;1.50;;
19782;SDS011;10051;40.294;-3.754;2023-08-21T14:25:09;6.32;;;1.70;;
19782;SDS011;10051;40.294;-3.754;2023-08-21T14:27:35;4.15;;;1.67;;
19782;SDS011;10051;40.294;-3.754;2023-08-21T14:30:01;4.78;;;1.80;;
19782;SDS011;10051;40.294;-3.754;2023-08-21T14:32:28;5.28;;;1.70;;
19782;SDS011;10051;40.294;-3.754;2023-08-21T14:35:06;6.10;;;1.65;;
19782;SDS011;10051;40.294;-3.754;2023-08-21T14:37:35;4.47;;;1.73;;
19782;SDS011;10051;40.294;-3.754;2023-08-21T14:40:02;3.22;;;1.60;;
19782;SDS011;10051;40.294;-3.754;2023-08-21T14:42:35;6.30;;;1.67;;